• Join FlightAware (Why Join?)
  • Login
  • US Flag 
10:13PM EDT


 

Airport Tracker/Info


-or-


 

Live Flight TrackerFlight Track Log ✈ N813MK ✈ 21-Apr-2013 ✈ KLGB - KMRY

Flight Track Log - Related Links

Times and Time Zones

All times are in EDT time to prevent confusion due to time zone crossing. See the N813MK flight status page for this flight to view local times or setup timezone preferences in your user account.

Time Position Orientation Groundspeed Altitude Reporting Facility
EDT Latitude Longitude Course Direction KTS MPH feet Rate Location/Type
01:32PM 33.8333 -118.1833 327° Northwest 160 184 1,800  Level Southern California TRACON
01:32PM 33.8447 -118.1922 327° Northwest 151 174 2,200 1,140 Climbing Los Angeles Center
01:33PM 33.8536 -118.2461 281° West 163 188 3,400 1,500 Climbing Los Angeles Center
01:34PM 33.8517 -118.3400 269° West 222 255 5,400 2,220 Climbing Los Angeles Center
01:35PM 33.8458 -118.4300 266° West 268 308 8,100 2,880 Climbing Los Angeles Center
01:37PM 33.8372 -118.5400 265° West 299 344 11,400 3,000 Climbing Los Angeles Center
01:38PM 33.8272 -118.6333 263° West 317 365 14,400 2,700 Climbing Los Angeles Center
01:39PM 33.8678 -118.7389 295° West 334 384 17,100 2,220 Climbing Los Angeles Center
01:40PM 33.9344 -118.8394 309° West 361 415 19,000 1,860 Climbing Los Angeles Center
01:41PM 34.0019 -118.9483 307° West 402 463 21,000 2,220 Climbing Los Angeles Center
01:42PM 34.0714 -119.0606 307° West 414 476 23,600 2,520 Climbing Los Angeles Center
01:43PM 34.1408 -119.1742 306° West 420 483 26,300 2,340 Climbing Los Angeles Center
01:44PM 34.2128 -119.2886 307° West 426 490 29,000 1,620 Climbing Los Angeles Center
01:45PM 34.3150 -119.4542 307° West 440 506 30,000 480 Climbing Los Angeles Center
01:46PM 34.4131 -119.5503 321° Northwest 450 518 30,000  Level Los Angeles Center
01:47PM 34.5136 -119.6411 323° Northwest 452 520 30,000  Level Los Angeles Center
01:48PM 34.6094 -119.7319 322° Northwest 453 521 30,000  Level Los Angeles Center
01:49PM 34.7103 -119.8239 323° Northwest 454 522 30,000  Level Los Angeles Center
01:50PM 34.8306 -119.9364 322° Northwest 454 522 30,000  Level Los Angeles Center
01:51PM 34.9311 -120.0308 322° Northwest 456 525 30,000  Level Los Angeles Center
01:52PM 35.0272 -120.1203 323° Northwest 459 528 30,000  Level Los Angeles Center
01:53PM 35.1272 -120.2139 323° Northwest 457 526 30,000  Level Los Angeles Center
01:54PM 35.2272 -120.3081 322° Northwest 458 527 30,000  Level Los Angeles Center
01:55PM 35.3478 -120.4225 322° Northwest 461 531 30,000  Level Los Angeles Center
01:56PM 35.4472 -120.5206 321° Northwest 461 531 30,000  Level Los Angeles Center
01:57PM 35.5481 -120.6158 322° Northwest 459 528 30,000 -60 Level Los Angeles Center
01:58PM 35.6450 -120.7100 322° Northwest 458 527 29,900 -900 Descending Los Angeles Center
01:59PM 35.7142 -120.8778 297° West 464 534 28,200 -2,100 Descending Los Angeles Center
02:01PM 35.7683 -121.0514 291° West 458 527 25,200 -2,580 Descending Oakland Center
02:02PM 35.8128 -121.1911 291° West 442 509 22,500 -2,400 Descending Oakland Center
02:03PM 35.9053 -121.2742 324° Northwest 406 467 20,400 -2,040 Descending Oakland Center
02:04PM 36.0100 -121.3200 341° North 394 453 18,300 -2,220 Descending Oakland Center
02:05PM 36.1106 -121.3622 341° North 381 438 15,900 -2,460 Descending Oakland Center
02:06PM 36.2067 -121.4011 342° North 362 417 13,300 -2,280 Descending Oakland Center
02:07PM 36.3022 -121.4611 333° Northwest 315 362 11,300 -2,160 Descending Oakland Center
02:08PM 36.3697 -121.5178 326° Northwest 292 336 8,900 -2,160 Descending Oakland Center
02:09PM 36.4328 -121.5756 324° Northwest 281 323 6,900 -1,800 Descending Oakland Center
02:10PM 36.5000 -121.6500 318° Northwest 260 299 5,000 -1,560 Descending Northern Cal TRACON
02:11PM 36.5333 -121.7167 302° West 205 236 3,500 -1,620 Descending Northern Cal TRACON
02:12PM 36.5667 -121.7667 310° West 191 220 1,800 -1,440 Descending Northern Cal TRACON
02:13PM 36.5833 -121.8167 293° West 142 163 800 -1,140 Descending Northern Cal TRACON